Time;durP1;ratioP1;P1;durP2;ratioP2;P2;SDS_P1;SDS_P2;PMS_P1;PMS_P2;Temp;Humidity;BMP_temperature;BMP_pressure;BME280_temperature;BME280_humidity;BME280_pressure;Samples;Min_cycle;Max_cycle;Signal;HPM_P1;HPM_P2
2022/02/14 00:02:22;;;;;;;0.40;0.40;;;;;;;0.38;100.00;99059.91;4974738;28;20088;-90
2022/02/14 00:04:48;;;;;;;0.50;0.50;;;;;;;0.52;100.00;99066.47;4959946;28;20033;-86
2022/02/14 00:07:13;;;;;;;0.40;0.40;;;;;;;0.61;100.00;99071.69;4975402;28;20033;-88
2022/02/14 00:09:39;;;;;;;0.40;0.40;;;;;;;0.67;100.00;99074.69;4958329;28;20034;-87
2022/02/14 00:12:05;;;;;;;2.05;1.60;;;;;;;0.72;100.00;99083.84;4960935;28;20026;-89
2022/02/14 00:14:31;;;;;;;0.50;0.50;;;;;;;0.65;100.00;99083.59;4973448;28;20050;-87
2022/02/14 00:16:56;;;;;;;0.80;0.80;;;;;;;0.28;100.00;99041.47;4986802;28;20361;-87
2022/02/14 00:19:22;;;;;;;0.73;0.73;;;;;;;0.43;100.00;99084.09;4972936;28;20043;-86
2022/02/14 00:21:48;;;;;;;0.50;0.50;;;;;;;0.46;100.00;99088.25;4973978;28;20121;-87
2022/02/14 00:24:15;;;;;;;0.40;0.40;;;;;;;0.62;100.00;99085.72;4968689;28;20033;-88
2022/02/14 00:26:40;;;;;;;0.40;0.40;;;;;;;0.97;100.00;99097.22;5005549;28;20034;-87
2022/02/14 00:29:06;;;;;;;1.02;0.98;;;;;;;1.15;100.00;99102.47;4970506;28;20042;-88
2022/02/14 00:31:32;;;;;;;0.50;0.50;;;;;;;1.18;100.00;99100.34;4991841;28;20033;-89
2022/02/14 00:33:58;;;;;;;0.40;0.40;;;;;;;1.22;100.00;99104.34;4955357;28;20033;-87
2022/02/14 00:36:24;;;;;;;1.08;1.08;;;;;;;1.17;100.00;99098.69;4990590;28;20036;-89
2022/02/14 00:38:50;;;;;;;10.82;1.83;;;;;;;1.04;100.00;99100.94;4975170;28;20424;-88
2022/02/14 00:41:16;;;;;;;0.40;0.40;;;;;;;1.04;100.00;99114.16;5001138;28;20391;-86
2022/02/14 00:43:41;;;;;;;2.10;1.52;;;;;;;1.04;100.00;99100.94;4962323;28;20072;-87
2022/02/14 00:46:07;;;;;;;0.52;0.52;;;;;;;1.15;100.00;99111.25;4973990;28;20057;-89
2022/02/14 00:48:36;;;;;;;1.30;1.20;;;;;;;1.18;100.00;99102.16;4988437;28;20049;-87
2022/02/14 00:51:02;;;;;;;2.95;1.52;;;;;;;1.30;100.00;99120.28;4971387;28;20153;-86
2022/02/14 00:53:27;;;;;;;0.95;0.95;;;;;;;1.35;100.00;99118.97;4989861;28;20527;-87
2022/02/14 00:55:56;;;;;;;0.50;0.50;;;;;;;1.27;100.00;99110.00;4987084;28;20037;-87
2022/02/14 00:58:21;;;;;;;0.63;0.63;;;;;;;1.28;100.00;99116.97;4972527;28;20040;-87
2022/02/14 01:00:47;;;;;;;0.40;0.40;;;;;;;1.11;100.00;99099.31;4974673;28;20030;-87
2022/02/14 01:03:13;;;;;;;0.50;0.50;;;;;;;1.15;100.00;99121.84;4987314;28;20097;-87
2022/02/14 01:05:38;;;;;;;0.68;0.68;;;;;;;0.97;100.00;99126.34;4971897;28;20034;-87
2022/02/14 01:08:04;;;;;;;3.17;2.97;;;;;;;0.60;100.00;99104.38;4967935;28;20041;-87
2022/02/14 01:10:30;;;;;;;0.73;0.73;;;;;;;0.58;100.00;99124.91;4958289;28;20034;-85
2022/02/14 01:12:56;;;;;;;0.45;0.45;;;;;;;0.41;100.00;99120.44;5004195;28;20113;-87
2022/02/14 01:15:21;;;;;;;1.02;1.02;;;;;;;0.33;100.00;99130.94;5003593;28;20026;-88
2022/02/14 01:17:47;;;;;;;0.45;0.45;;;;;;;0.11;100.00;99129.56;4973145;28;20502;-85
2022/02/14 01:20:13;;;;;;;0.60;0.60;;;;;;;0.09;100.00;99142.91;4971431;28;20042;-86
2022/02/14 01:22:40;;;;;;;0.57;0.57;;;;;;;0.07;100.00;99144.03;4988776;28;20600;-87
2022/02/14 01:25:07;;;;;;;0.65;0.65;;;;;;;0.10;100.00;99141.09;4949027;28;20048;-88
2022/02/14 01:27:33;;;;;;;0.40;0.40;;;;;;;0.10;100.00;99139.28;4983164;28;20491;-86
2022/02/14 01:29:58;;;;;;;0.40;0.40;;;;;;;0.24;100.00;99137.94;4987808;28;20301;-86
2022/02/14 01:32:24;;;;;;;0.40;0.40;;;;;;;0.54;100.00;99138.56;4968734;28;20420;-88
2022/02/14 01:34:50;;;;;;;0.50;0.50;;;;;;;0.69;100.00;99115.03;4986738;28;20041;-87
2022/02/14 01:37:16;;;;;;;0.40;0.40;;;;;;;0.82;100.00;99129.56;4954219;28;20041;-86
2022/02/14 01:39:42;;;;;;;0.40;0.40;;;;;;;0.84;100.00;99132.03;4975444;28;20087;-88
2022/02/14 01:42:08;;;;;;;0.40;0.40;;;;;;;0.81;100.00;99143.75;4950614;28;20036;-86
2022/02/14 01:44:39;;;;;;;0.50;0.50;;;;;;;0.59;100.00;99123.91;4984598;28;20080;-87
2022/02/14 01:47:15;;;;;;;0.50;0.50;;;;;;;0.54;100.00;99152.63;4975025;28;20087;-88
2022/02/14 01:49:42;;;;;;;1.05;1.05;;;;;;;0.21;100.00;99147.00;4982840;28;20460;-88
2022/02/14 01:52:09;;;;;;;0.50;0.50;;;;;;;0.34;100.00;99157.19;4968675;28;20110;-87
2022/02/14 01:54:35;;;;;;;0.40;0.40;;;;;;;0.38;100.00;99158.56;4972731;28;20491;-87
2022/02/14 01:57:01;;;;;;;0.40;0.40;;;;;;;0.36;100.00;99155.25;4951134;28;20495;-87
2022/02/14 01:59:27;;;;;;;0.60;0.60;;;;;;;0.16;100.00;99151.06;4988103;28;20026;-86
2022/02/14 02:01:53;;;;;;;2.22;1.75;;;;;;;0.11;100.00;99155.97;4981734;28;20026;-89
2022/02/14 02:04:18;;;;;;;0.50;0.50;;;;;;;-0.36;100.00;99104.06;4986984;28;20037;-87
2022/02/14 02:06:44;;;;;;;1.40;1.40;;;;;;;-0.16;100.00;99162.94;4956251;28;20095;-86
2022/02/14 02:09:10;;;;;;;1.20;1.20;;;;;;;-0.22;100.00;99160.84;4967214;28;20468;-88
2022/02/14 02:14:26;;;;;;;0.50;0.50;;;;;;;-0.07;100.00;99172.63;4970017;28;20034;-86
2022/02/14 02:16:52;;;;;;;0.40;0.40;;;;;;;-0.03;100.00;99165.22;4990129;28;20361;-88
2022/02/14 02:19:18;;;;;;;0.50;0.50;;;;;;;0.06;100.00;99174.09;4981785;28;20034;-87
2022/02/14 02:21:45;;;;;;;0.50;0.50;;;;;;;0.11;100.00;99169.19;4988350;28;20791;-87
2022/02/14 02:24:19;;;;;;;0.40;0.40;;;;;;;0.26;100.00;99180.91;4956198;28;20038;-86
2022/02/14 02:27:04;;;;;;;0.50;0.50;;;;;;;0.58;100.00;99169.00;4966478;28;20062;-88
2022/02/14 02:29:29;;;;;;;0.40;0.40;;;;;;;0.84;100.00;99179.66;4970370;28;20036;-86
2022/02/14 02:31:56;;;;;;;0.50;0.50;;;;;;;0.89;100.00;99182.69;4954157;28;20033;-87
2022/02/14 02:34:22;;;;;;;0.50;0.50;;;;;;;0.77;100.00;99166.22;4986665;28;20083;-85
2022/02/14 02:36:48;;;;;;;0.50;0.50;;;;;;;0.80;100.00;99192.38;4959898;28;20080;-85
2022/02/14 02:39:14;;;;;;;0.40;0.40;;;;;;;0.74;100.00;99179.75;4970615;28;20531;-86
2022/02/14 02:41:40;;;;;;;0.40;0.40;;;;;;;0.76;100.00;99184.88;4956705;28;20037;-88
2022/02/14 02:44:05;;;;;;;0.40;0.40;;;;;;;0.73;100.00;99182.53;4971247;28;20562;-89
2022/02/14 02:46:31;;;;;;;0.40;0.40;;;;;;;0.60;100.00;99170.50;4968242;28;20534;-88
2022/02/14 02:49:12;;;;;;;0.50;0.50;;;;;;;0.44;100.00;99181.75;4973455;28;20537;-86
2022/02/14 02:51:42;;;;;;;0.40;0.40;;;;;;;0.42;100.00;99183.75;4991506;28;20041;-87
2022/02/14 02:54:08;;;;;;;0.50;0.50;;;;;;;0.28;100.00;99173.66;4952738;28;20120;-88
2022/02/14 02:56:35;;;;;;;0.40;0.40;;;;;;;0.22;100.00;99185.66;4987530;28;20471;-85
2022/02/14 02:59:00;;;;;;;0.40;0.40;;;;;;;0.14;100.00;99179.47;4956489;28;20060;-86
2022/02/14 03:01:26;;;;;;;0.50;0.50;;;;;;;0.06;100.00;99187.31;4985502;28;20034;-88
2022/02/14 03:03:53;;;;;;;0.50;0.50;;;;;;;0.06;100.00;99195.22;4975527;28;20061;-85
2022/02/14 03:06:19;;;;;;;0.50;0.50;;;;;;;0.05;100.00;99196.19;5002682;28;20030;-87
2022/02/14 03:08:45;;;;;;;1.52;1.42;;;;;;;-0.05;100.00;99189.16;4993101;28;20042;-86
2022/02/14 03:11:11;;;;;;;0.50;0.50;;;;;;;-0.12;100.00;99195.16;4957084;28;20029;-86
2022/02/14 03:13:36;;;;;;;0.77;0.77;;;;;;;-0.09;100.00;99208.09;4994685;28;20447;-88
2022/02/14 03:16:02;;;;;;;0.40;0.40;;;;;;;-0.16;100.00;99191.13;4957914;28;20033;-86
2022/02/14 03:18:28;;;;;;;0.50;0.50;;;;;;;-0.08;100.00;99217.66;4991932;28;20037;-87
2022/02/14 03:20:54;;;;;;;0.50;0.50;;;;;;;-0.22;100.00;99189.91;4975277;28;20038;-86
2022/02/14 03:23:20;;;;;;;0.63;0.63;;;;;;;-0.02;100.00;99212.63;4986474;28;20164;-85
2022/02/14 03:25:46;;;;;;;0.75;0.75;;;;;;;0.08;100.00;99214.38;4958290;28;20497;-87
2022/02/14 03:28:11;;;;;;;0.50;0.50;;;;;;;0.12;100.00;99227.16;4989988;28;20270;-86
2022/02/14 03:30:37;;;;;;;2.70;2.45;;;;;;;0.15;100.00;99231.34;4975413;28;20045;-85
2022/02/14 03:33:03;;;;;;;0.50;0.50;;;;;;;0.09;100.00;99245.16;4960983;28;20045;-87
2022/02/14 03:35:28;;;;;;;0.50;0.50;;;;;;;0.17;100.00;99239.97;4990257;28;20034;-86
2022/02/14 03:37:56;;;;;;;0.50;0.50;;;;;;;0.21;100.00;99228.09;4978199;28;20046;-90
2022/02/14 03:40:22;;;;;;;0.50;0.50;;;;;;;0.28;100.00;99237.09;4980857;28;20034;-89
2022/02/14 03:42:47;;;;;;;0.40;0.40;;;;;;;0.27;100.00;99234.63;4970826;28;20045;-88
2022/02/14 03:45:13;;;;;;;0.40;0.40;;;;;;;0.36;100.00;99250.41;4956118;28;20408;-87
2022/02/14 03:47:39;;;;;;;0.50;0.50;;;;;;;0.32;100.00;99246.44;4975731;28;20044;-87
2022/02/14 03:50:06;;;;;;;0.40;0.40;;;;;;;0.35;100.00;99246.13;4985636;28;20033;-87
2022/02/14 03:52:31;;;;;;;0.40;0.40;;;;;;;0.38;100.00;99242.34;4973006;28;20042;-87
2022/02/14 03:55:03;;;;;;;0.70;0.70;;;;;;;0.32;100.00;99246.44;4988352;28;20033;-85
2022/02/14 03:57:38;;;;;;;0.50;0.50;;;;;;;0.31;100.00;99242.09;4957822;28;20046;-88
2022/02/14 04:00:09;;;;;;;0.50;0.50;;;;;;;0.29;100.00;99233.50;4950154;28;20137;-87
2022/02/14 04:02:35;;;;;;;0.50;0.50;;;;;;;0.41;100.00;99245.53;4966995;28;20037;-88
2022/02/14 04:05:02;;;;;;;0.50;0.50;;;;;;;0.37;100.00;99246.81;4961948;28;20092;-86
2022/02/14 04:07:28;;;;;;;0.50;0.50;;;;;;;0.51;100.00;99274.56;4978197;28;20496;-88
2022/02/14 04:09:54;;;;;;;0.40;0.40;;;;;;;0.36;100.00;99262.81;4992207;28;20447;-89
2022/02/14 04:12:20;;;;;;;0.50;0.50;;;;;;;0.50;100.00;99275.53;4984915;28;20029;-87
2022/02/14 04:14:45;;;;;;;0.50;0.50;;;;;;;0.69;100.00;99287.84;4992898;28;20471;-87
2022/02/14 04:17:11;;;;;;;0.47;0.47;;;;;;;0.49;100.00;99251.91;4991251;28;20467;-86
2022/02/14 04:19:36;;;;;;;0.50;0.50;;;;;;;0.61;100.00;99293.88;4988509;28;20049;-89
2022/02/14 04:22:02;;;;;;;0.40;0.40;;;;;;;0.49;100.00;99291.56;4957440;28;20026;-87
2022/02/14 04:24:28;;;;;;;0.50;0.50;;;;;;;0.43;100.00;99306.22;4964581;28;20033;-86
2022/02/14 04:26:54;;;;;;;0.50;0.50;;;;;;;0.55;100.00;99309.47;4989602;28;20092;-88
2022/02/14 04:29:20;;;;;;;0.40;0.40;;;;;;;0.76;100.00;99311.88;4990879;28;20030;-90
2022/02/14 04:31:45;;;;;;;0.40;0.40;;;;;;;0.71;100.00;99312.31;4955630;28;20381;-86
2022/02/14 04:34:11;;;;;;;0.50;0.50;;;;;;;0.68;100.00;99315.25;4992875;28;20387;-87
2022/02/14 04:36:37;;;;;;;0.40;0.40;;;;;;;0.63;100.00;99322.78;4988553;28;20034;-87
2022/02/14 04:39:03;;;;;;;0.40;0.40;;;;;;;0.57;100.00;99334.81;4970151;28;20080;-88
2022/02/14 04:41:28;;;;;;;0.40;0.40;;;;;;;0.57;100.00;99337.44;4961632;28;20068;-85
2022/02/14 04:43:54;;;;;;;0.40;0.40;;;;;;;0.57;100.00;99329.50;4990676;28;20026;-88
2022/02/14 04:46:19;;;;;;;0.50;0.50;;;;;;;0.79;100.00;99351.25;4994631;28;20029;-88
2022/02/14 04:48:45;;;;;;;0.50;0.50;;;;;;;0.94;100.00;99354.25;4989339;28;20472;-88
2022/02/14 04:51:11;;;;;;;0.50;0.50;;;;;;;1.15;100.00;99360.09;4953820;28;20477;-87
2022/02/14 04:53:37;;;;;;;0.50;0.50;;;;;;;1.24;100.00;99356.53;4974520;28;20038;-88
2022/02/14 04:56:03;;;;;;;0.50;0.50;;;;;;;1.57;100.00;99378.06;4971592;28;20033;-89
2022/02/14 04:58:29;;;;;;;0.50;0.50;;;;;;;1.94;100.00;99375.22;4978661;28;20395;-89
2022/02/14 05:00:55;;;;;;;0.40;0.40;;;;;;;2.27;100.00;99382.56;4986329;28;20029;-86
2022/02/14 05:03:20;;;;;;;0.50;0.50;;;;;;;2.41;100.00;99374.03;4976342;28;20383;-86
2022/02/14 05:05:46;;;;;;;0.40;0.40;;;;;;;2.58;100.00;99364.31;4973371;28;20459;-87
2022/02/14 05:08:12;;;;;;;0.50;0.50;;;;;;;2.89;100.00;99393.00;4974698;28;20065;-83
2022/02/14 05:10:37;;;;;;;0.40;0.40;;;;;;;3.12;100.00;99410.00;4994460;28;20140;-87
2022/02/14 05:13:03;;;;;;;1.27;1.27;;;;;;;3.31;100.00;99424.84;4985701;28;20450;-87
2022/02/14 05:15:29;;;;;;;2.08;0.70;;;;;;;3.40;100.00;99431.84;4988813;28;20488;-87
2022/02/14 05:17:55;;;;;;;3.08;0.93;;;;;;;3.53;100.00;99437.50;4987569;28;20373;-91
2022/02/14 05:20:20;;;;;;;3.72;0.75;;;;;;;3.64;100.00;99414.28;4976925;28;20515;-87
2022/02/14 05:22:46;;;;;;;0.40;0.40;;;;;;;3.66;100.00;99444.19;4988833;28;20041;-85
2022/02/14 05:25:11;;;;;;;2.83;0.70;;;;;;;3.56;100.00;99435.53;4989786;28;20133;-87
2022/02/14 05:27:37;;;;;;;2.15;0.77;;;;;;;3.62;100.00;99450.81;4969383;28;20046;-87
2022/02/14 05:30:07;;;;;;;3.95;0.80;;;;;;;3.67;100.00;99462.63;4988408;28;20460;-87
2022/02/14 05:32:33;;;;;;;1.35;0.75;;;;;;;3.60;100.00;99464.28;4976811;28;20037;-89
2022/02/14 05:34:59;;;;;;;0.50;0.50;;;;;;;3.42;100.00;99456.44;4968749;28;20091;-87
2022/02/14 05:37:24;;;;;;;1.17;0.60;;;;;;;3.36;100.00;99458.88;4975686;28;20041;-87
2022/02/14 05:39:50;;;;;;;0.50;0.50;;;;;;;3.33;100.00;99460.03;4974954;28;20096;-89
2022/02/14 05:42:16;;;;;;;0.80;0.55;;;;;;;3.17;100.00;99473.25;4974980;28;20029;-88
2022/02/14 05:44:42;;;;;;;0.40;0.40;;;;;;;3.16;100.00;99495.53;4988824;28;20955;-86
2022/02/14 05:47:08;;;;;;;0.50;0.50;;;;;;;3.04;100.00;99502.91;4989463;28;20096;-89
2022/02/14 05:49:34;;;;;;;0.50;0.50;;;;;;;2.85;100.00;99485.38;4990653;28;20108;-85
2022/02/14 05:52:00;;;;;;;0.40;0.40;;;;;;;2.88;100.00;99498.34;4993940;28;20456;-85
2022/02/14 05:54:26;;;;;;;0.40;0.40;;;;;;;2.88;100.00;99516.94;4989724;28;20034;-84
2022/02/14 05:56:51;;;;;;;1.10;0.45;;;;;;;2.89;100.00;99520.44;4954054;28;20029;-87
2022/02/14 05:59:17;;;;;;;0.47;0.47;;;;;;;2.94;100.00;99526.94;5010318;28;20069;-87
2022/02/14 06:01:43;;;;;;;0.50;0.50;;;;;;;2.77;100.00;99512.72;4992548;28;20050;-89
2022/02/14 06:04:09;;;;;;;0.40;0.40;;;;;;;2.73;100.00;99534.44;4956890;28;20443;-87
2022/02/14 06:06:34;;;;;;;0.40;0.40;;;;;;;2.36;100.00;99509.78;4969267;28;20494;-85
2022/02/14 06:09:02;;;;;;;0.40;0.40;;;;;;;2.56;100.00;99538.78;4957270;28;20065;-87
2022/02/14 06:11:28;;;;;;;0.40;0.40;;;;;;;2.50;100.00;99534.09;4993510;28;20045;-86
2022/02/14 06:13:54;;;;;;;0.40;0.40;;;;;;;2.56;100.00;99541.44;4990573;28;20095;-86
2022/02/14 06:16:20;;;;;;;0.40;0.40;;;;;;;2.68;100.00;99565.91;4974574;28;20032;-87
2022/02/14 06:18:46;;;;;;;0.40;0.40;;;;;;;2.53;100.00;99563.78;4989760;28;20121;-86
2022/02/14 06:21:11;;;;;;;0.40;0.40;;;;;;;2.35;100.00;99560.31;5007691;28;20532;-88
2022/02/14 06:23:37;;;;;;;0.50;0.50;;;;;;;2.20;100.00;99579.44;4989246;28;20038;-86
2022/02/14 06:26:03;;;;;;;0.50;0.50;;;;;;;1.96;100.00;99569.41;4988343;28;20065;-86
2022/02/14 06:28:29;;;;;;;0.40;0.40;;;;;;;2.06;100.00;99585.25;4988786;28;20048;-89
2022/02/14 06:30:55;;;;;;;0.40;0.40;;;;;;;2.07;100.00;99594.88;4990794;28;20034;-86
2022/02/14 06:33:20;;;;;;;0.40;0.40;;;;;;;1.90;100.00;99579.75;4991351;28;20072;-88
2022/02/14 06:35:46;;;;;;;0.40;0.40;;;;;;;2.16;100.00;99609.88;4990479;28;20569;-87
2022/02/14 06:38:11;;;;;;;0.40;0.40;;;;;;;2.30;100.00;99620.94;4947073;28;20049;-87
2022/02/14 06:40:37;;;;;;;0.50;0.50;;;;;;;2.37;100.00;99606.94;4986573;28;20782;-87
2022/02/14 06:43:03;;;;;;;0.40;0.40;;;;;;;2.47;100.00;99604.22;4971631;28;20362;-87
2022/02/14 06:45:28;;;;;;;0.40;0.40;;;;;;;2.71;100.00;99616.03;4961710;28;20060;-87
2022/02/14 06:47:54;;;;;;;1.27;0.50;;;;;;;2.79;100.00;99616.09;4964902;28;20056;-89
2022/02/14 06:50:20;;;;;;;0.50;0.50;;;;;;;2.88;100.00;99641.72;4982511;28;20072;-87
2022/02/14 06:52:46;;;;;;;0.40;0.40;;;;;;;2.83;100.00;99638.69;4958844;28;20036;-87
2022/02/14 06:55:12;;;;;;;0.50;0.50;;;;;;;2.78;100.00;99655.09;4987390;28;20190;-87
2022/02/14 06:57:38;;;;;;;0.40;0.40;;;;;;;2.43;100.00;99610.81;4972381;28;20042;-86
2022/02/14 07:00:07;;;;;;;0.40;0.40;;;;;;;2.60;100.00;99643.66;4985342;28;20030;-86
2022/02/14 07:02:33;;;;;;;0.40;0.40;;;;;;;2.48;100.00;99660.75;4982926;28;20042;-87
2022/02/14 07:04:59;;;;;;;0.43;0.43;;;;;;;2.36;100.00;99653.03;4983577;28;20028;-87
2022/02/14 07:07:25;;;;;;;0.40;0.40;;;;;;;2.26;100.00;99664.69;4967584;28;20970;-86
2022/02/14 07:09:50;;;;;;;0.40;0.40;;;;;;;2.23;100.00;99681.72;4981700;28;20040;-87
2022/02/14 07:12:16;;;;;;;0.50;0.50;;;;;;;2.09;100.00;99677.78;4986585;28;20046;-87
2022/02/14 07:14:42;;;;;;;0.50;0.50;;;;;;;2.07;100.00;99678.91;4966626;28;20041;-86
2022/02/14 07:17:07;;;;;;;0.47;0.47;;;;;;;2.04;100.00;99690.63;4987688;28;20038;-87
2022/02/14 07:19:33;;;;;;;0.50;0.50;;;;;;;2.03;100.00;99690.78;4988063;28;20473;-85
2022/02/14 07:21:59;;;;;;;0.50;0.50;;;;;;;1.87;100.00;99678.16;4974182;28;20030;-87
2022/02/14 07:24:24;;;;;;;0.40;0.40;;;;;;;2.03;100.00;99725.25;4974064;28;20030;-86
2022/02/14 07:26:50;;;;;;;0.50;0.50;;;;;;;1.93;100.00;99722.63;4992068;28;20076;-88
2022/02/14 07:29:17;;;;;;;0.40;0.40;;;;;;;1.93;100.00;99719.97;5000064;28;20041;-88
2022/02/14 07:31:42;;;;;;;0.50;0.50;;;;;;;1.89;100.00;99734.50;4994454;28;20160;-86
2022/02/14 07:34:08;;;;;;;0.50;0.50;;;;;;;1.83;100.00;99741.22;4992280;28;20113;-87
2022/02/14 07:36:34;;;;;;;0.40;0.40;;;;;;;1.83;100.00;99735.94;4975402;28;20038;-86
2022/02/14 07:38:59;;;;;;;0.40;0.40;;;;;;;1.86;100.00;99750.72;4959206;28;20604;-89
2022/02/14 07:41:25;;;;;;;0.40;0.40;;;;;;;1.70;100.00;99744.19;4961265;28;20030;-87
2022/02/14 07:43:50;;;;;;;0.50;0.50;;;;;;;1.68;100.00;99754.09;4988929;28;20042;-87
2022/02/14 07:46:18;;;;;;;0.50;0.50;;;;;;;1.66;100.00;99755.22;4958829;28;20518;-86
2022/02/14 07:48:46;;;;;;;0.40;0.40;;;;;;;1.57;100.00;99745.47;4990786;28;20188;-89
2022/02/14 07:51:19;;;;;;;0.40;0.40;;;;;;;1.59;100.00;99775.28;4990753;28;20157;-89
2022/02/14 07:53:45;;;;;;;0.40;0.40;;;;;;;1.66;100.00;99774.59;4991966;28;20073;-90
2022/02/14 07:56:12;;;;;;;0.50;0.50;;;;;;;1.72;100.00;99784.63;4960583;28;20076;-86
2022/02/14 07:58:42;;;;;;;0.50;0.50;;;;;;;1.63;100.00;99785.47;4994898;28;20434;-88
2022/02/14 08:01:09;;;;;;;0.40;0.40;;;;;;;1.67;100.00;99789.53;4988796;28;20033;-88
2022/02/14 08:03:34;;;;;;;0.40;0.40;;;;;;;1.75;100.00;99802.91;4984900;28;20026;-89
2022/02/14 08:06:01;;;;;;;0.40;0.40;;;;;;;1.73;100.00;99809.31;4961832;28;20380;-88
2022/02/14 08:08:26;;;;;;;0.50;0.50;;;;;;;1.65;100.00;99814.50;4987993;28;20361;-88
2022/02/14 08:10:53;;;;;;;0.50;0.50;;;;;;;1.57;100.00;99814.38;4976246;28;20048;-88
2022/02/14 08:13:19;;;;;;;0.40;0.40;;;;;;;1.54;100.00;99834.88;5010136;28;20046;-88
2022/02/14 08:15:45;;;;;;;0.40;0.40;;;;;;;1.38;100.00;99825.81;4986474;28;20389;-87
2022/02/14 08:18:16;;;;;;;0.50;0.50;;;;;;;1.62;100.00;99836.81;4969802;28;20069;-85
2022/02/14 08:20:41;;;;;;;0.50;0.50;;;;;;;1.86;100.00;99851.44;4990654;28;20034;-88
2022/02/14 08:23:07;;;;;;;0.40;0.40;;;;;;;1.80;100.00;99839.59;5001950;28;20257;-87
2022/02/14 08:25:34;;;;;;;0.50;0.50;;;;;;;1.89;100.00;99845.84;4988501;28;20034;-86
2022/02/14 08:28:00;;;;;;;0.50;0.50;;;;;;;2.01;100.00;99854.47;4972414;28;20492;-86
2022/02/14 08:30:26;;;;;;;0.40;0.40;;;;;;;1.86;100.00;99828.41;4978712;28;20042;-88
2022/02/14 08:32:54;;;;;;;0.40;0.40;;;;;;;2.31;100.00;99871.97;4992733;28;20474;-85
2022/02/14 08:35:20;;;;;;;0.40;0.40;;;;;;;2.54;100.00;99878.59;4989648;28;20033;-87
2022/02/14 08:37:47;;;;;;;0.50;0.50;;;;;;;2.60;100.00;99854.13;4997935;28;20377;-87
2022/02/14 08:40:15;;;;;;;0.50;0.50;;;;;;;2.99;100.00;99884.94;4975208;28;20036;-86
2022/02/14 08:42:41;;;;;;;0.50;0.50;;;;;;;3.23;100.00;99903.00;4972336;28;20041;-85
2022/02/14 08:45:07;;;;;;;0.50;0.50;;;;;;;3.33;100.00;99895.78;4987588;28;20107;-85
2022/02/14 08:47:33;;;;;;;0.60;0.60;;;;;;;3.37;100.00;99906.97;4978089;28;20077;-87
2022/02/14 08:50:00;;;;;;;1.55;0.75;;;;;;;3.68;100.00;99915.41;5009250;28;20030;-87
2022/02/14 08:52:27;;;;;;;1.08;0.70;;;;;;;4.11;100.00;99905.78;4989364;28;20092;-85
2022/02/14 08:54:54;;;;;;;0.50;0.50;;;;;;;3.98;100.00;99911.50;4961482;28;20049;-86
2022/02/14 08:57:20;;;;;;;1.85;0.68;;;;;;;3.84;100.00;99904.91;4989486;28;20156;-85
2022/02/14 08:59:45;;;;;;;1.17;0.77;;;;;;;3.68;100.00;99907.44;4972300;28;20121;-87
2022/02/14 09:02:11;;;;;;;0.40;0.40;;;;;;;3.57;100.00;99928.91;4974845;28;20030;-83
2022/02/14 09:04:39;;;;;;;0.50;0.50;;;;;;;3.88;100.00;99943.50;5005320;28;20330;-88
2022/02/14 09:07:05;;;;;;;0.52;0.52;;;;;;;5.76;100.00;99929.47;4992575;28;20056;-87
2022/02/14 09:09:31;;;;;;;0.60;0.60;;;;;;;7.13;100.00;99933.97;4953420;28;20396;-88
2022/02/14 09:11:57;;;;;;;0.70;0.70;;;;;;;8.06;100.00;99951.81;4969456;28;20034;-90
2022/02/14 09:14:23;;;;;;;2.25;1.13;;;;;;;8.69;95.77;99952.44;4956824;28;20128;-86
2022/02/14 09:16:51;;;;;;;0.57;0.57;;;;;;;9.18;93.30;99949.19;4992782;28;20576;-87
2022/02/14 09:19:17;;;;;;;1.00;0.95;;;;;;;9.61;91.15;99952.84;4991854;28;20048;-88
2022/02/14 09:21:43;;;;;;;3.03;0.75;;;;;;;9.91;89.19;99953.56;4976335;28;20042;-88
2022/02/14 09:24:13;;;;;;;1.15;0.80;;;;;;;10.22;88.25;99962.34;4993661;28;20472;-86
2022/02/14 09:26:44;;;;;;;3.10;0.73;;;;;;;10.69;86.48;99950.09;4976564;28;20056;-87
2022/02/14 09:29:11;;;;;;;0.50;0.50;;;;;;;10.63;85.75;99978.63;4986331;28;20530;-89
2022/02/14 09:31:42;;;;;;;0.68;0.68;;;;;;;10.72;86.65;99988.22;4979500;28;20041;-88
2022/02/14 09:34:08;;;;;;;0.70;0.70;;;;;;;11.31;85.86;99986.91;4992648;28;20509;-84
2022/02/14 09:36:34;;;;;;;0.40;0.40;;;;;;;10.98;85.75;99981.31;5000014;28;20042;-86
2022/02/14 09:39:01;;;;;;;0.40;0.40;;;;;;;9.09;94.42;100006.66;4976709;28;20049;-88
2022/02/14 09:41:27;;;;;;;0.40;0.40;;;;;;;7.67;100.00;99988.38;4970324;28;20046;-88
2022/02/14 09:43:52;;;;;;;0.40;0.40;;;;;;;6.68;100.00;100004.91;4986537;28;20046;-86
2022/02/14 09:46:18;;;;;;;0.50;0.50;;;;;;;6.06;100.00;99982.25;4975935;28;20042;-88
2022/02/14 09:48:44;;;;;;;0.70;0.70;;;;;;;9.17;96.16;100020.78;4964707;28;20041;-88
2022/02/14 09:51:12;;;;;;;1.27;1.27;;;;;;;10.30;89.65;100015.97;4962219;28;20499;-88
2022/02/14 09:53:41;;;;;;;0.70;0.70;;;;;;;11.65;83.64;100014.81;4957593;28;20070;-88
2022/02/14 09:56:08;;;;;;;0.80;0.80;;;;;;;12.54;80.21;100021.88;5000951;28;20045;-87
2022/02/14 09:58:34;;;;;;;0.65;0.65;;;;;;;13.29;79.01;100033.28;4999173;28;20042;-82
2022/02/14 10:01:00;;;;;;;0.70;0.70;;;;;;;14.01;76.99;100031.31;5020053;28;20026;-82
2022/02/14 10:03:26;;;;;;;0.80;0.80;;;;;;;14.44;72.94;100032.53;4983200;28;20030;-87
2022/02/14 10:05:59;;;;;;;0.75;0.75;;;;;;;14.82;72.29;100045.16;4992162;28;20436;-87
2022/02/14 10:08:30;;;;;;;1.20;1.10;;;;;;;14.85;70.27;100034.72;4988230;28;20534;-90
2022/02/14 10:11:14;;;;;;;0.80;0.80;;;;;;;14.76;70.32;100032.53;4997309;28;20459;-89
2022/02/14 10:13:50;;;;;;;0.88;0.80;;;;;;;13.74;74.44;100051.41;4995150;28;20033;-89
2022/02/14 10:16:19;;;;;;;0.60;0.60;;;;;;;12.99;78.52;100054.44;4976862;28;20044;-89
2022/02/14 10:18:45;;;;;;;0.80;0.80;;;;;;;11.42;82.94;100052.81;4976734;28;20495;-89
2022/02/14 10:21:25;;;;;;;0.75;0.75;;;;;;;13.11;78.54;100046.56;4972995;28;20026;-89
2022/02/14 10:24:08;;;;;;;0.75;0.75;;;;;;;14.91;73.99;100070.91;4991717;28;20057;-86
2022/02/14 10:26:33;;;;;;;;;;;;;;;15.67;69.22;100091.44;5006504;28;20108;-88
2022/02/14 10:29:14;;;;;;;1.10;1.00;;;;;;;16.08;67.16;100086.38;4974475;28;20057;-90
2022/02/14 10:31:45;;;;;;;1.15;1.00;;;;;;;16.56;66.05;100097.19;4975715;28;20492;-89
2022/02/14 10:34:16;;;;;;;0.60;0.60;;;;;;;14.31;73.72;100068.59;4962531;28;20049;-88
2022/02/14 10:36:44;;;;;;;1.27;0.80;;;;;;;11.95;81.42;100104.25;4956799;28;20084;-90
2022/02/14 10:39:21;;;;;;;1.23;0.82;;;;;;;11.42;81.54;100075.16;4983957;28;20076;-87
2022/02/14 10:41:59;;;;;;;1.30;0.80;;;;;;;10.17;88.51;100112.53;4984024;28;20872;-88
2022/02/14 10:47:19;;;;;;;7.97;1.25;;;;;;;9.33;96.02;100120.91;4985619;28;20030;-91
2022/02/14 10:49:57;;;;;;;3.15;1.23;;;;;;;10.48;89.87;100131.09;4989231;28;20062;-88
2022/02/14 10:52:23;;;;;;;0.98;0.88;;;;;;;13.36;80.68;100133.16;4977307;28;20451;-88
2022/02/14 10:54:49;;;;;;;5.43;1.83;;;;;;;14.34;74.84;100127.66;4960629;28;20022;-88
2022/02/14 10:57:28;;;;;;;3.50;1.33;;;;;;;12.90;78.30;100129.38;4995945;28;20076;-93
2022/02/14 11:00:00;;;;;;;4.97;1.60;;;;;;;13.27;75.75;100129.84;4997844;28;20079;-88
2022/02/14 11:02:26;;;;;;;6.05;1.38;;;;;;;14.82;72.38;100146.16;5000587;28;20439;-89
2022/02/14 11:04:52;;;;;;;7.70;1.17;;;;;;;15.11;69.09;100128.44;4998613;28;20037;-89
2022/02/14 11:07:19;;;;;;;4.03;1.77;;;;;;;15.36;68.97;100138.44;4978987;28;20550;-89
2022/02/14 11:09:49;;;;;;;6.70;1.30;;;;;;;14.19;72.82;100146.03;4983608;28;20480;-90
2022/02/14 11:12:18;;;;;;;8.00;1.40;;;;;;;13.99;74.22;100143.41;4982563;28;20030;-88
2022/02/14 11:14:55;;;;;;;7.13;2.45;;;;;;;14.36;74.03;100158.00;4997105;28;20500;-87
2022/02/14 11:17:27;;;;;;;6.45;1.45;;;;;;;13.83;75.66;100150.94;4983373;28;20036;-88
2022/02/14 11:20:00;;;;;;;5.25;1.90;;;;;;;13.82;77.00;100151.97;4977188;28;20551;-87
2022/02/14 11:22:31;;;;;;;16.73;2.97;;;;;;;13.97;69.85;100169.81;4970291;28;20026;-87
2022/02/14 11:25:09;;;;;;;8.13;1.40;;;;;;;12.74;75.58;100152.19;4974416;28;20072;-84
2022/02/14 11:27:37;;;;;;;10.05;1.55;;;;;;;11.23;80.25;100178.13;5009593;28;20038;-83
2022/02/14 11:30:10;;;;;;;13.52;2.28;;;;;;;10.24;86.24;100177.91;4988995;28;20041;-84
2022/02/14 11:32:39;;;;;;;8.27;1.77;;;;;;;9.60;91.21;100184.66;4965915;28;20093;-85
2022/02/14 11:35:14;;;;;;;7.07;1.90;;;;;;;10.03;88.43;100187.56;5005258;28;20035;-85
2022/02/14 11:37:54;;;;;;;5.78;1.30;;;;;;;10.81;83.36;100158.31;4983961;28;20034;-85